createdAt,value
2022-12-07T00:02:20.281Z,9.20
2022-12-07T00:04:50.212Z,9.48
2022-12-07T00:07:17.872Z,9.65
2022-12-07T00:09:45.601Z,9.98
2022-12-07T00:12:13.902Z,10.10
2022-12-07T00:14:41.631Z,10.40
2022-12-07T00:17:09.263Z,9.48
2022-12-07T00:19:36.891Z,9.55
2022-12-07T00:22:04.571Z,9.35
2022-12-07T00:24:32.301Z,10.07
2022-12-07T00:26:59.996Z,8.93
2022-12-07T00:29:27.993Z,8.85
2022-12-07T00:31:55.780Z,9.25
2022-12-07T00:34:23.525Z,8.15
2022-12-07T00:36:51.445Z,8.43
2022-12-07T00:39:19.177Z,8.45
2022-12-07T00:41:46.962Z,8.45
2022-12-07T00:44:14.912Z,9.35
2022-12-07T00:46:42.651Z,9.25
2022-12-07T00:49:10.444Z,9.20
2022-12-07T00:51:38.178Z,9.88
2022-12-07T00:54:06.070Z,9.35
2022-12-07T00:56:33.874Z,7.93
2022-12-07T00:59:03.863Z,8.43
2022-12-07T01:01:34.989Z,9.00
2022-12-07T01:04:04.122Z,9.18
2022-12-07T01:06:32.345Z,7.82
2022-12-07T01:09:00.589Z,8.70
2022-12-07T01:11:30.889Z,7.55
2022-12-07T01:14:00.615Z,8.13
2022-12-07T01:16:30.706Z,7.53
2022-12-07T01:18:59.760Z,8.25
2022-12-07T01:21:37.144Z,7.18
2022-12-07T01:24:07.378Z,7.00
2022-12-07T01:26:35.208Z,7.65
2022-12-07T01:29:02.990Z,8.93
2022-12-07T01:31:31.364Z,7.47
2022-12-07T01:34:00.579Z,8.30
2022-12-07T01:36:31.233Z,7.75
2022-12-07T01:39:01.542Z,7.72
2022-12-07T01:41:36.231Z,7.90
2022-12-07T01:44:24.777Z,7.20
2022-12-07T01:46:57.380Z,7.53
2022-12-07T01:49:41.897Z,7.78
2022-12-07T01:52:18.739Z,8.23
2022-12-07T01:54:48.818Z,8.70
2022-12-07T01:57:18.144Z,7.90
2022-12-07T01:59:48.423Z,9.00
2022-12-07T02:02:24.817Z,7.30
2022-12-07T02:04:54.720Z,8.23
2022-12-07T02:07:24.269Z,8.75
2022-12-07T02:09:52.162Z,8.05
2022-12-07T02:12:21.073Z,7.78
2022-12-07T02:14:49.614Z,8.02
2022-12-07T02:17:43.094Z,7.55
2022-12-07T02:20:31.568Z,8.10
2022-12-07T02:23:35.806Z,8.55
2022-12-07T02:26:42.132Z,8.15
2022-12-07T02:29:23.328Z,8.00
2022-12-07T02:32:12.617Z,7.85
2022-12-07T02:34:52.263Z,7.85
2022-12-07T02:37:50.706Z,8.93
2022-12-07T02:40:26.400Z,8.52
2022-12-07T02:43:08.425Z,8.65
2022-12-07T02:45:40.590Z,8.13
2022-12-07T02:48:13.241Z,9.15
2022-12-07T02:50:46.359Z,10.00
2022-12-07T02:53:33.851Z,9.43
2022-12-07T02:56:18.004Z,9.45
2022-12-07T02:58:56.094Z,8.68
2022-12-07T03:01:27.001Z,8.43
2022-12-07T03:04:14.255Z,8.98
2022-12-07T03:06:49.773Z,9.00
2022-12-07T03:09:43.976Z,8.85
2022-12-07T03:12:20.117Z,9.20
2022-12-07T03:14:56.627Z,8.48
2022-12-07T03:17:29.876Z,8.48
2022-12-07T03:20:02.042Z,10.30
2022-12-07T03:22:33.730Z,8.15
2022-12-07T03:25:06.690Z,8.95
2022-12-07T03:27:43.710Z,8.82
2022-12-07T03:30:16.151Z,8.23
2022-12-07T03:32:53.597Z,8.52
2022-12-07T03:35:27.563Z,8.65
2022-12-07T03:38:23.086Z,9.88
2022-12-07T03:41:05.841Z,9.48
2022-12-07T03:43:33.970Z,10.15
2022-12-07T03:46:52.743Z,8.70
2022-12-07T03:49:29.370Z,9.00
2022-12-07T03:52:33.230Z,8.93
2022-12-07T03:55:07.788Z,9.15
2022-12-07T03:57:37.471Z,8.60
2022-12-07T04:00:07.644Z,9.10
2022-12-07T04:02:39.981Z,8.45
2022-12-07T04:05:08.931Z,8.73
2022-12-07T04:07:36.671Z,8.57
2022-12-07T04:10:05.646Z,9.93
2022-12-07T04:12:33.724Z,9.38
2022-12-07T04:15:01.524Z,8.88
2022-12-07T04:17:29.414Z,8.65
2022-12-07T04:19:57.217Z,9.25
2022-12-07T04:22:25.154Z,9.20
2022-12-07T04:24:52.853Z,9.77
2022-12-07T04:27:20.656Z,8.35
2022-12-07T04:29:48.480Z,9.23
2022-12-07T04:32:16.360Z,9.13
2022-12-07T04:34:44.135Z,8.20
2022-12-07T04:37:12.004Z,7.50
2022-12-07T04:39:39.868Z,7.38
2022-12-07T04:42:07.703Z,7.60
2022-12-07T04:44:35.786Z,8.13
2022-12-07T04:47:03.903Z,6.95
2022-12-07T04:49:32.057Z,8.43
2022-12-07T04:51:59.923Z,7.25
2022-12-07T04:54:27.844Z,7.05
2022-12-07T04:56:55.587Z,6.13
2022-12-07T04:59:23.411Z,7.00
2022-12-07T05:01:51.337Z,7.30
2022-12-07T05:04:19.257Z,6.90
2022-12-07T05:06:47.047Z,7.20
2022-12-07T05:09:14.878Z,7.07
2022-12-07T05:11:42.832Z,6.68
2022-12-07T05:14:21.415Z,6.63
2022-12-07T05:16:51.912Z,6.82
2022-12-07T05:19:20.566Z,6.80
2022-12-07T05:21:48.788Z,6.70
2022-12-07T05:24:17.591Z,5.55
2022-12-07T05:26:46.237Z,6.30
2022-12-07T05:29:16.067Z,6.20
2022-12-07T05:31:44.949Z,6.18
2022-12-07T05:34:12.858Z,6.88
2022-12-07T05:36:40.727Z,5.65
2022-12-07T05:39:09.374Z,5.07
2022-12-07T05:41:55.750Z,6.13
2022-12-07T05:44:23.651Z,6.07
2022-12-07T05:46:51.345Z,6.15
2022-12-07T05:49:19.114Z,5.47
2022-12-07T05:51:46.925Z,6.45
2022-12-07T05:54:14.679Z,6.07
2022-12-07T05:56:42.563Z,5.38
2022-12-07T05:59:26.071Z,6.10
2022-12-07T06:01:56.250Z,6.05
2022-12-07T06:04:25.909Z,6.15
2022-12-07T06:06:54.088Z,5.28
2022-12-07T06:09:23.761Z,6.22
2022-12-07T06:12:10.627Z,5.43
2022-12-07T06:14:38.774Z,5.50
2022-12-07T06:17:07.059Z,5.47
2022-12-07T06:19:35.146Z,5.60
2022-12-07T06:22:03.915Z,5.70
2022-12-07T06:24:33.589Z,5.85
2022-12-07T06:27:01.494Z,5.47
2022-12-07T06:29:29.453Z,5.25
2022-12-07T06:31:57.633Z,5.00
2022-12-07T06:34:26.568Z,5.55
2022-12-07T06:36:56.233Z,5.40
2022-12-07T06:39:27.086Z,5.63
2022-12-07T06:41:55.985Z,5.03
2022-12-07T06:44:24.596Z,6.03
2022-12-07T06:47:06.750Z,5.22
2022-12-07T06:49:41.122Z,5.40
2022-12-07T06:52:08.976Z,5.93
2022-12-07T06:54:36.870Z,5.63
2022-12-07T06:57:04.880Z,5.72
2022-12-07T06:59:32.665Z,6.05
2022-12-07T07:02:00.498Z,5.43
2022-12-07T07:04:28.356Z,5.85
2022-12-07T07:07:00.008Z,5.22
2022-12-07T07:09:28.608Z,5.07
2022-12-07T07:11:56.651Z,5.43
2022-12-07T07:14:24.589Z,4.93
2022-12-07T07:16:52.545Z,5.22
2022-12-07T07:19:20.299Z,5.97
2022-12-07T07:21:48.120Z,5.63
2022-12-07T07:24:15.959Z,6.70
2022-12-07T07:26:43.872Z,5.93
2022-12-07T07:29:11.686Z,6.18
2022-12-07T07:31:39.575Z,6.50
2022-12-07T07:34:07.479Z,6.35
2022-12-07T07:36:35.322Z,6.00
2022-12-07T07:39:03.259Z,6.00
2022-12-07T07:41:31.096Z,5.68
2022-12-07T07:43:59.123Z,6.80
2022-12-07T07:46:26.949Z,6.40
2022-12-07T07:48:54.827Z,6.00
2022-12-07T07:51:22.578Z,6.25
2022-12-07T07:53:50.476Z,6.47
2022-12-07T07:56:18.318Z,6.20
2022-12-07T07:58:46.073Z,6.25
2022-12-07T08:01:14.815Z,6.13
2022-12-07T08:03:42.662Z,6.43
2022-12-07T08:06:10.428Z,5.90
2022-12-07T08:08:38.297Z,6.75
2022-12-07T08:11:07.333Z,6.43
2022-12-07T08:13:35.836Z,6.38
2022-12-07T08:16:09.740Z,6.40
2022-12-07T08:18:40.264Z,6.53
2022-12-07T08:21:11.687Z,7.20
2022-12-07T08:23:40.321Z,7.35
2022-12-07T08:26:11.802Z,6.15
2022-12-07T08:28:40.395Z,6.38
2022-12-07T08:31:12.471Z,6.35
2022-12-07T08:33:40.370Z,5.78
2022-12-07T08:36:10.695Z,6.70
2022-12-07T08:38:39.912Z,6.32
2022-12-07T08:41:08.701Z,6.03
2022-12-07T08:43:37.137Z,4.90
2022-12-07T08:46:07.396Z,5.63
2022-12-07T08:48:38.829Z,5.63
2022-12-07T08:51:06.735Z,5.00
2022-12-07T08:53:35.477Z,5.25
2022-12-07T08:56:03.442Z,4.60
2022-12-07T08:58:31.478Z,5.60
2022-12-07T09:00:59.366Z,5.88
2022-12-07T09:03:27.145Z,6.97
2022-12-07T09:05:55.590Z,7.38
2022-12-07T09:08:40.171Z,6.38
2022-12-07T09:11:08.037Z,6.38
2022-12-07T09:13:35.855Z,6.50
2022-12-07T09:16:03.975Z,6.68
2022-12-07T09:18:31.796Z,6.15
2022-12-07T09:20:59.707Z,6.40
2022-12-07T09:23:27.459Z,6.85
2022-12-07T09:25:55.174Z,7.68
2022-12-07T09:28:22.938Z,7.45
2022-12-07T09:31:22.324Z,6.13
2022-12-07T09:33:38.940Z,7.07
2022-12-07T09:36:07.193Z,6.90
2022-12-07T09:38:35.211Z,6.80
2022-12-07T09:41:08.367Z,7.00
2022-12-07T09:43:37.740Z,7.07
2022-12-07T09:46:05.822Z,6.25
2022-12-07T09:48:40.272Z,6.70
2022-12-07T09:51:26.347Z,6.50
2022-12-07T09:53:56.419Z,6.78
2022-12-07T09:56:25.005Z,6.47
2022-12-07T09:59:02.172Z,7.47
2022-12-07T10:01:32.870Z,7.25
2022-12-07T10:04:23.006Z,8.38
2022-12-07T10:06:52.373Z,8.35
2022-12-07T10:09:22.449Z,7.70
2022-12-07T10:12:10.576Z,8.98
2022-12-07T10:17:33.319Z,10.35
2022-12-07T10:20:22.304Z,9.85
2022-12-07T10:23:00.739Z,10.77
2022-12-07T10:25:36.138Z,9.23
2022-12-07T10:28:09.910Z,9.68
2022-12-07T10:31:04.540Z,10.10
2022-12-07T10:33:34.954Z,9.93
2022-12-07T10:36:19.597Z,9.68
2022-12-07T10:38:54.233Z,9.65
2022-12-07T10:41:22.053Z,8.40
2022-12-07T10:43:55.535Z,8.48
2022-12-07T10:46:47.085Z,9.18
2022-12-07T10:49:39.605Z,10.23
2022-12-07T10:52:28.394Z,9.57
2022-12-07T10:55:08.406Z,7.50
2022-12-07T10:57:54.570Z,7.80
2022-12-07T11:00:27.298Z,7.80
2022-12-07T11:03:00.898Z,7.88
2022-12-07T11:05:51.911Z,7.30
2022-12-07T11:09:06.984Z,7.50
2022-12-07T11:11:45.890Z,8.80
2022-12-07T11:14:30.496Z,8.15
2022-12-07T11:17:10.212Z,8.38
2022-12-07T11:19:52.203Z,9.55
2022-12-07T11:22:38.822Z,8.40
2022-12-07T11:25:31.612Z,9.02
2022-12-07T11:28:27.217Z,8.60
2022-12-07T11:31:13.311Z,8.73
2022-12-07T11:34:22.405Z,8.68
2022-12-07T11:36:55.259Z,8.52
2022-12-07T11:39:29.843Z,7.78
2022-12-07T11:42:07.086Z,8.63
2022-12-07T11:44:46.449Z,8.38
2022-12-07T11:47:14.332Z,8.15
2022-12-07T11:49:55.245Z,8.90
2022-12-07T11:52:41.712Z,8.00
2022-12-07T11:55:23.059Z,8.02
2022-12-07T11:57:58.935Z,7.28
2022-12-07T12:00:26.715Z,7.20
2022-12-07T12:03:12.727Z,7.38
2022-12-07T12:05:41.046Z,6.38
2022-12-07T12:11:39.054Z,6.38
2022-12-07T12:17:24.470Z,7.38
2022-12-07T12:20:29.533Z,7.68
2022-12-07T12:23:07.140Z,7.97
2022-12-07T12:25:43.804Z,9.00
2022-12-07T12:28:26.479Z,12.65
2022-12-07T12:31:18.060Z,12.65
2022-12-07T12:33:47.446Z,12.10
2022-12-07T12:36:21.666Z,9.43
2022-12-07T12:39:12.025Z,9.85
2022-12-07T12:41:40.517Z,11.00
2022-12-07T12:44:20.440Z,10.65
2022-12-07T12:46:55.347Z,8.30
2022-12-07T12:49:23.040Z,9.93
2022-12-07T12:52:04.390Z,7.80
2022-12-07T12:54:35.484Z,9.52
2022-12-07T12:57:05.987Z,8.35
2022-12-07T12:59:40.580Z,8.88
2022-12-07T13:02:29.698Z,9.77
2022-12-07T13:05:11.308Z,8.60
2022-12-07T13:07:48.545Z,8.20
2022-12-07T13:10:35.511Z,8.38
2022-12-07T13:13:30.715Z,8.35
2022-12-07T13:16:10.843Z,8.43
2022-12-07T13:18:39.731Z,8.55
2022-12-07T13:21:10.284Z,7.90
2022-12-07T13:23:46.837Z,8.18
2022-12-07T13:26:35.595Z,9.43
2022-12-07T13:29:11.084Z,9.95
2022-12-07T13:31:40.547Z,9.55
2022-12-07T13:34:34.617Z,9.68
2022-12-07T13:37:11.877Z,10.80
2022-12-07T13:39:52.593Z,10.48
2022-12-07T13:42:40.710Z,9.48
2022-12-07T13:45:56.598Z,10.43
2022-12-07T13:48:33.919Z,11.15
2022-12-07T13:51:04.072Z,11.05
2022-12-07T13:53:32.024Z,10.63
2022-12-07T13:56:01.290Z,11.23
2022-12-07T13:58:33.248Z,12.23
2022-12-07T14:01:01.548Z,11.20
2022-12-07T14:03:33.585Z,12.05
2022-12-07T14:06:31.954Z,11.18
2022-12-07T14:09:26.563Z,12.43
2022-12-07T14:11:57.402Z,11.23
2022-12-07T14:14:36.282Z,12.13
2022-12-07T14:17:23.773Z,12.38
2022-12-07T14:19:57.847Z,13.70
2022-12-07T14:25:14.977Z,12.57
2022-12-07T14:28:01.561Z,13.25
2022-12-07T14:30:31.897Z,12.32
2022-12-07T14:33:02.968Z,13.65
2022-12-07T14:35:32.503Z,12.70
2022-12-07T14:38:00.333Z,12.05
2022-12-07T14:40:30.242Z,13.40
2022-12-07T14:43:07.834Z,13.82
2022-12-07T14:45:35.561Z,13.57
2022-12-07T14:53:55.493Z,13.55
2022-12-07T14:56:25.987Z,13.98
2022-12-07T14:58:53.889Z,13.45
2022-12-07T15:01:21.924Z,13.95
2022-12-07T15:03:49.732Z,13.60
2022-12-07T15:06:19.662Z,15.23
2022-12-07T15:08:47.584Z,15.25
2022-12-07T15:11:17.704Z,14.52
2022-12-07T15:14:04.738Z,15.70
2022-12-07T15:16:52.547Z,14.82
2022-12-07T15:19:28.935Z,16.05
2022-12-07T15:21:59.416Z,14.63
2022-12-07T15:24:27.861Z,14.95
2022-12-07T15:26:56.040Z,15.48
2022-12-07T15:29:24.216Z,16.38
2022-12-07T15:31:57.139Z,14.50
2022-12-07T15:34:33.260Z,14.88
2022-12-07T15:37:05.943Z,16.50
2022-12-07T15:39:34.031Z,16.95
2022-12-07T15:42:01.861Z,16.33
2022-12-07T15:44:48.001Z,16.98
2022-12-07T15:47:15.725Z,17.60
2022-12-07T15:49:43.873Z,16.95
2022-12-07T15:52:11.615Z,17.05
2022-12-07T15:54:39.497Z,16.58
2022-12-07T15:57:07.245Z,16.30
2022-12-07T15:59:35.150Z,17.10
2022-12-07T16:02:03.234Z,17.15
2022-12-07T16:04:31.062Z,17.10
2022-12-07T16:06:59.041Z,17.92
2022-12-07T16:09:27.862Z,17.30
2022-12-07T16:11:56.294Z,18.33
2022-12-07T16:14:24.237Z,18.88
2022-12-07T16:16:52.124Z,18.63
2022-12-07T16:19:19.885Z,18.02
2022-12-07T16:21:47.617Z,18.27
2022-12-07T16:24:16.379Z,18.73
2022-12-07T16:26:49.610Z,18.45
2022-12-07T16:29:20.399Z,18.88
2022-12-07T16:31:49.077Z,19.65
2022-12-07T16:34:17.434Z,19.38
2022-12-07T16:39:34.350Z,19.58
2022-12-07T16:42:02.363Z,20.73
2022-12-07T16:44:30.320Z,20.98
2022-12-07T16:46:58.173Z,20.50
2022-12-07T16:49:25.994Z,18.95
2022-12-07T16:52:18.373Z,21.08
2022-12-07T16:54:42.594Z,21.90
2022-12-07T16:57:10.338Z,19.85
2022-12-07T16:59:38.461Z,21.00
2022-12-07T17:02:07.628Z,19.75
2022-12-07T17:04:35.918Z,19.67
2022-12-07T17:07:03.791Z,19.67
2022-12-07T17:09:31.597Z,19.73
2022-12-07T17:11:59.421Z,18.55
2022-12-07T17:14:45.805Z,20.33
2022-12-07T17:17:13.533Z,18.83
2022-12-07T17:19:41.545Z,18.33
2022-12-07T17:22:12.716Z,19.17
2022-12-07T17:24:40.603Z,19.75
2022-12-07T17:27:09.294Z,19.27
2022-12-07T17:29:37.082Z,18.85
2022-12-07T17:32:04.995Z,19.63
2022-12-07T17:34:33.233Z,18.85
2022-12-07T17:37:01.017Z,19.38
2022-12-07T17:39:29.786Z,20.35
2022-12-07T17:42:16.209Z,20.27
2022-12-07T17:44:44.062Z,19.90
2022-12-07T17:47:12.034Z,21.35
2022-12-07T17:49:39.788Z,19.65
2022-12-07T17:52:26.347Z,20.80
2022-12-07T17:54:54.111Z,22.70
2022-12-07T17:57:21.925Z,19.73
2022-12-07T17:59:49.972Z,20.60
2022-12-07T18:02:18.567Z,22.42
2022-12-07T18:04:47.670Z,22.23
2022-12-07T18:07:15.594Z,20.52
2022-12-07T18:09:43.394Z,19.35
2022-12-07T18:12:11.345Z,23.13
2022-12-07T18:14:39.095Z,21.25
2022-12-07T18:17:07.705Z,23.02
2022-12-07T18:19:37.389Z,22.05
2022-12-07T18:22:06.157Z,21.17
2022-12-07T18:24:37.158Z,23.95
2022-12-07T18:27:06.561Z,25.52
2022-12-07T18:29:34.372Z,26.02
2022-12-07T18:32:02.529Z,26.50
2022-12-07T18:34:30.693Z,26.20
2022-12-07T18:36:59.058Z,25.08
2022-12-07T18:39:33.024Z,24.95
2022-12-07T18:42:01.688Z,23.10
2022-12-07T18:44:29.649Z,23.63
2022-12-07T18:46:57.815Z,21.95
2022-12-07T18:49:25.737Z,23.17
2022-12-07T18:51:53.511Z,23.90
2022-12-07T18:54:21.328Z,24.35
2022-12-07T18:56:49.116Z,25.75
2022-12-07T18:59:35.611Z,25.30
2022-12-07T19:02:03.396Z,24.63
2022-12-07T19:04:31.753Z,23.30
2022-12-07T19:07:00.303Z,22.42
2022-12-07T19:09:28.200Z,23.42
2022-12-07T19:11:57.348Z,22.77
2022-12-07T19:14:32.615Z,24.20
2022-12-07T19:17:03.791Z,24.20
2022-12-07T19:19:45.372Z,24.33
2022-12-07T19:22:16.090Z,21.27
2022-12-07T19:24:46.724Z,24.05
2022-12-07T19:27:15.521Z,22.73
2022-12-07T19:29:45.504Z,24.77
2022-12-07T19:32:14.336Z,22.00
2022-12-07T19:34:44.670Z,21.50
2022-12-07T19:37:16.190Z,20.83
2022-12-07T19:39:45.266Z,22.10
2022-12-07T19:42:13.037Z,22.15
2022-12-07T19:44:40.916Z,22.13
2022-12-07T19:47:09.563Z,21.27
2022-12-07T19:49:37.383Z,22.10
2022-12-07T19:52:07.847Z,22.10
2022-12-07T19:54:36.659Z,22.50
2022-12-07T19:57:05.987Z,20.98
2022-12-07T19:59:34.508Z,22.33
2022-12-07T20:02:02.256Z,21.58
2022-12-07T20:04:32.783Z,22.17
2022-12-07T20:07:01.377Z,20.02
2022-12-07T20:09:29.190Z,21.98
2022-12-07T20:12:15.804Z,23.25
2022-12-07T20:14:43.706Z,21.90
2022-12-07T20:17:11.826Z,23.17
2022-12-07T20:19:40.189Z,22.73
2022-12-07T20:22:08.268Z,22.95
2022-12-07T20:24:36.574Z,22.38
2022-12-07T20:27:05.621Z,22.75
2022-12-07T20:29:33.875Z,21.60
2022-12-07T20:32:01.818Z,23.10
2022-12-07T20:34:29.668Z,21.92
2022-12-07T20:36:57.417Z,21.65
2022-12-07T20:39:25.299Z,21.95
2022-12-07T20:42:11.728Z,23.95
2022-12-07T20:44:39.774Z,20.27
2022-12-07T20:47:07.509Z,21.33
2022-12-07T20:49:35.616Z,21.50
2022-12-07T20:52:03.806Z,21.00
2022-12-07T20:54:31.666Z,21.98
2022-12-07T20:56:59.570Z,21.73
2022-12-07T20:59:27.560Z,22.90
2022-12-07T21:01:55.945Z,22.33
2022-12-07T21:04:23.769Z,22.38
2022-12-07T21:06:53.641Z,21.23
2022-12-07T21:09:26.865Z,22.88
2022-12-07T21:11:55.493Z,23.02
2022-12-07T21:14:23.768Z,25.58
2022-12-07T21:16:51.743Z,26.63
2022-12-07T21:19:23.082Z,23.50
2022-12-07T21:21:52.108Z,26.27
2022-12-07T21:24:20.273Z,24.30
2022-12-07T21:26:49.952Z,23.75
2022-12-07T21:29:25.816Z,24.27
2022-12-07T21:32:03.016Z,25.02
2022-12-07T21:34:30.886Z,25.55
2022-12-07T21:36:58.823Z,25.17
2022-12-07T21:39:26.744Z,24.55
2022-12-07T21:41:54.542Z,24.30
2022-12-07T21:44:22.378Z,24.30
2022-12-07T21:46:50.237Z,26.73
2022-12-07T21:49:17.997Z,27.15
2022-12-07T21:51:45.825Z,25.25
2022-12-07T21:54:13.702Z,24.08
2022-12-07T21:56:42.900Z,24.98
2022-12-07T21:59:17.770Z,25.25
2022-12-07T22:01:47.551Z,26.05
2022-12-07T22:04:24.054Z,27.08
2022-12-07T22:06:53.262Z,25.35
2022-12-07T22:09:24.141Z,24.98
2022-12-07T22:11:52.271Z,24.23
2022-12-07T22:14:38.605Z,25.98
2022-12-07T22:17:06.908Z,24.92
2022-12-07T22:19:35.311Z,25.05
2022-12-07T22:22:03.348Z,22.77
2022-12-07T22:24:31.560Z,23.35
2022-12-07T22:26:59.943Z,24.48
2022-12-07T22:29:28.263Z,22.60
2022-12-07T22:31:56.099Z,23.65
2022-12-07T22:34:24.067Z,22.05
2022-12-07T22:36:51.969Z,20.95
2022-12-07T22:39:20.298Z,21.17
2022-12-07T22:41:48.094Z,22.08
2022-12-07T22:44:16.004Z,20.73
2022-12-07T22:46:44.034Z,20.25
2022-12-07T22:49:12.591Z,21.35
2022-12-07T22:51:41.753Z,19.98
2022-12-07T22:54:16.159Z,20.98
2022-12-07T22:56:44.724Z,20.58
2022-12-07T22:59:13.820Z,21.02
2022-12-07T23:01:41.701Z,21.08
2022-12-07T23:04:10.003Z,22.17
2022-12-07T23:06:37.913Z,22.25
2022-12-07T23:09:10.577Z,22.90
2022-12-07T23:11:59.512Z,21.60
2022-12-07T23:14:29.720Z,21.90
2022-12-07T23:16:58.199Z,21.98
2022-12-07T23:19:26.702Z,20.55
2022-12-07T23:21:54.524Z,22.95
2022-12-07T23:24:22.458Z,22.33
2022-12-07T23:26:50.572Z,22.60
2022-12-07T23:29:18.535Z,22.30
2022-12-07T23:31:48.255Z,19.45
2022-12-07T23:34:16.272Z,20.50
2022-12-07T23:36:44.357Z,20.50
2022-12-07T23:39:12.608Z,21.30
2022-12-07T23:41:40.470Z,22.05
2022-12-07T23:44:08.398Z,19.92
2022-12-07T23:46:36.309Z,20.00
2022-12-07T23:49:05.604Z,21.75
2022-12-07T23:51:33.586Z,21.05
2022-12-07T23:54:02.118Z,19.15
2022-12-07T23:56:33.197Z,20.13
2022-12-07T23:59:01.752Z,20.52
